Hovedside
METAR-TAF:

METAR-TAF

Lufthavner :

Kristiansund, Norge

Kristiansund lufthavn

breddegrad: 63-07N, lengdegrad: 007-50E, høyde over havet: 6 m

Gjeldene værobservasjon

Denne rapporten ble laget for 22 minutter siden, klokken 07:20 UTC
Vind 9 kt fra skiftende retning
Temperatur 6°C
Luftfuktighet 75%
Trykk 1010 hPa
Sikt 10 km eller mer
Få skyer i en høyde av 800 ft
Spredte skyer i en høyde av 4400 ft
Brutte skyer i en høyde av 6600 ft
regnbyger i nærheten

METAR: ENKB 240720Z VRB09KT 9999 VCSH FEW008 SCT044 BKN066 06/02 Q1010 RMK WIND 745FT 15020KT

Tid: 09:42 (07:42 UTC)

Varsel

Denne rapporten ble laget for 2 timer og 42 minutter siden, klokken 05:00 UTC
Varsel gyldig fra 24. klokken 06 UTC til 24. klokken 15 UTC
Vind 8 kt fra Sørøst
Sikt 10 km eller mer
ingen skyer under 1500 m og ingen bygeskyer
Midlertidig
fra 24. klokken 06 UTC til 24. klokken 11 UTC
Vind 15 kt fra Sørøst med vindkast opp mot 25 kt

TAF: ENKB 240500Z 2406/2415 13008KT CAVOK TEMPO 2406/2411 13015G25KT

Værobservasjoner og værvarsel for over 4000 flyplasser (METAR- og TAF-rapporter).

Tilgjengelige stasjoner er representert av de røde og gule prikkene på kartet.

Hold musepekeren over prikken for å se navnet på stasjonen.

Klikk så for å se værobservasjoner og -varsler.

For å forandre kartet kan du klikke på den grønne knappen med svart kryss for å zoome inn, på den grønne knappen med strek for å zoome ut, eller på de grønne pilene for å se tilstøtende kart.


METAR-TAF: